sensor_id;sensor_type;location;lat;lon;timestamp;pressure;altitude;pressure_sealevel;temperature
72278;BMP280;61204;49.980;8.358;2022-12-29T00:02:18;99884.13;;;11.84
72278;BMP280;61204;49.980;8.358;2022-12-29T00:04:44;99879.94;;;11.83
72278;BMP280;61204;49.980;8.358;2022-12-29T00:07:09;99879.03;;;11.79
72278;BMP280;61204;49.980;8.358;2022-12-29T00:09:35;99879.16;;;11.81
72278;BMP280;61204;49.980;8.358;2022-12-29T00:12:02;99876.41;;;11.81
72278;BMP280;61204;49.980;8.358;2022-12-29T00:14:29;99875.16;;;11.84
72278;BMP280;61204;49.980;8.358;2022-12-29T00:17:14;99882.09;;;11.85
72278;BMP280;61204;49.980;8.358;2022-12-29T00:19:39;99873.13;;;11.96
72278;BMP280;61204;49.980;8.358;2022-12-29T00:22:23;99874.31;;;11.93
72278;BMP280;61204;49.980;8.358;2022-12-29T00:25:09;99871.38;;;12.02
72278;BMP280;61204;49.980;8.358;2022-12-29T00:27:55;99873.31;;;12.00
72278;BMP280;61204;49.980;8.358;2022-12-29T00:30:40;99881.03;;;12.04
72278;BMP280;61204;49.980;8.358;2022-12-29T00:33:31;99876.66;;;11.98
72278;BMP280;61204;49.980;8.358;2022-12-29T00:39:07;99881.66;;;12.02
72278;BMP280;61204;49.980;8.358;2022-12-29T00:42:05;99887.75;;;12.00
72278;BMP280;61204;49.980;8.358;2022-12-29T00:44:51;99886.44;;;12.01
72278;BMP280;61204;49.980;8.358;2022-12-29T00:47:17;99884.88;;;11.98
72278;BMP280;61204;49.980;8.358;2022-12-29T00:49:42;99880.84;;;11.99
72278;BMP280;61204;49.980;8.358;2022-12-29T00:52:09;99878.47;;;11.94
72278;BMP280;61204;49.980;8.358;2022-12-29T00:54:37;99869.53;;;11.93
72278;BMP280;61204;49.980;8.358;2022-12-29T00:57:05;99875.72;;;11.94
72278;BMP280;61204;49.980;8.358;2022-12-29T00:59:39;99870.22;;;11.94
72278;BMP280;61204;49.980;8.358;2022-12-29T01:02:08;99876.00;;;11.86
72278;BMP280;61204;49.980;8.358;2022-12-29T01:04:35;99879.34;;;11.85
72278;BMP280;61204;49.980;8.358;2022-12-29T01:07:01;99875.16;;;11.84
72278;BMP280;61204;49.980;8.358;2022-12-29T01:09:26;99876.00;;;11.86
72278;BMP280;61204;49.980;8.358;2022-12-29T01:12:10;99875.78;;;11.82
72278;BMP280;61204;49.980;8.358;2022-12-29T01:14:37;99865.63;;;11.85
72278;BMP280;61204;49.980;8.358;2022-12-29T01:17:03;99862.75;;;11.83
72278;BMP280;61204;49.980;8.358;2022-12-29T01:19:29;99850.00;;;11.76
72278;BMP280;61204;49.980;8.358;2022-12-29T01:21:55;99860.97;;;11.76
72278;BMP280;61204;49.980;8.358;2022-12-29T01:24:21;99856.81;;;11.74
72278;BMP280;61204;49.980;8.358;2022-12-29T01:26:47;99863.66;;;11.73
72278;BMP280;61204;49.980;8.358;2022-12-29T01:29:13;99860.97;;;11.76
72278;BMP280;61204;49.980;8.358;2022-12-29T01:31:39;99852.66;;;11.73
72278;BMP280;61204;49.980;8.358;2022-12-29T01:34:05;99857.78;;;11.67
72278;BMP280;61204;49.980;8.358;2022-12-29T01:36:31;99856.88;;;11.63
72278;BMP280;61204;49.980;8.358;2022-12-29T01:38:57;99861.66;;;11.62
72278;BMP280;61204;49.980;8.358;2022-12-29T01:41:23;99851.03;;;11.57
72278;BMP280;61204;49.980;8.358;2022-12-29T01:43:56;99864.41;;;11.62
72278;BMP280;61204;49.980;8.358;2022-12-29T01:46:34;99866.03;;;11.67
72278;BMP280;61204;49.980;8.358;2022-12-29T01:51:36;99850.66;;;11.62
72278;BMP280;61204;49.980;8.358;2022-12-29T01:54:16;99848.69;;;11.51
72278;BMP280;61204;49.980;8.358;2022-12-29T01:56:50;99847.34;;;11.52
72278;BMP280;61204;49.980;8.358;2022-12-29T01:59:20;99842.03;;;11.31
72278;BMP280;61204;49.980;8.358;2022-12-29T02:01:52;99849.34;;;11.26
72278;BMP280;61204;49.980;8.358;2022-12-29T02:04:19;99853.28;;;11.23
72278;BMP280;61204;49.980;8.358;2022-12-29T02:06:49;99841.81;;;11.27
72278;BMP280;61204;49.980;8.358;2022-12-29T02:09:22;99840.66;;;11.18
72278;BMP280;61204;49.980;8.358;2022-12-29T02:11:48;99839.09;;;11.15
72278;BMP280;61204;49.980;8.358;2022-12-29T02:14:14;99836.50;;;11.17
72278;BMP280;61204;49.980;8.358;2022-12-29T02:31:17;99784.22;;;11.27
72278;BMP280;61204;49.980;8.358;2022-12-29T02:34:24;99801.03;;;11.21
72278;BMP280;61204;49.980;8.358;2022-12-29T02:37:24;99796.91;;;11.20
72278;BMP280;61204;49.980;8.358;2022-12-29T02:43:27;99791.75;;;11.14
72278;BMP280;61204;49.980;8.358;2022-12-29T02:49:10;99791.88;;;11.16
72278;BMP280;61204;49.980;8.358;2022-12-29T02:51:49;99784.09;;;11.25
72278;BMP280;61204;49.980;8.358;2022-12-29T02:54:23;99778.28;;;11.18
72278;BMP280;61204;49.980;8.358;2022-12-29T02:57:15;99771.47;;;11.20
72278;BMP280;61204;49.980;8.358;2022-12-29T03:00:05;99762.72;;;11.23
72278;BMP280;61204;49.980;8.358;2022-12-29T03:02:44;99759.88;;;11.21
72278;BMP280;61204;49.980;8.358;2022-12-29T03:08:28;99757.75;;;11.20
72278;BMP280;61204;49.980;8.358;2022-12-29T03:11:09;99760.22;;;11.27
72278;BMP280;61204;49.980;8.358;2022-12-29T03:14:08;99767.63;;;11.25
72278;BMP280;61204;49.980;8.358;2022-12-29T03:17:24;99750.06;;;11.30
72278;BMP280;61204;49.980;8.358;2022-12-29T03:19:51;99739.53;;;11.38
72278;BMP280;61204;49.980;8.358;2022-12-29T03:22:27;99739.81;;;11.30
72278;BMP280;61204;49.980;8.358;2022-12-29T03:25:00;99748.03;;;11.30
72278;BMP280;61204;49.980;8.358;2022-12-29T03:27:40;99736.72;;;11.36
72278;BMP280;61204;49.980;8.358;2022-12-29T03:30:15;99742.06;;;11.34
72278;BMP280;61204;49.980;8.358;2022-12-29T03:32:44;99744.31;;;11.37
72278;BMP280;61204;49.980;8.358;2022-12-29T03:35:16;99748.31;;;11.48
72278;BMP280;61204;49.980;8.358;2022-12-29T03:37:50;99747.91;;;11.54
72278;BMP280;61204;49.980;8.358;2022-12-29T03:40:24;99745.59;;;11.48
72278;BMP280;61204;49.980;8.358;2022-12-29T03:42:52;99759.31;;;11.48
72278;BMP280;61204;49.980;8.358;2022-12-29T03:45:19;99748.19;;;11.58
72278;BMP280;61204;49.980;8.358;2022-12-29T03:47:45;99740.66;;;11.58
72278;BMP280;61204;49.980;8.358;2022-12-29T03:50:11;99739.81;;;11.56
72278;BMP280;61204;49.980;8.358;2022-12-29T03:52:38;99743.59;;;11.62
72278;BMP280;61204;49.980;8.358;2022-12-29T03:55:04;99735.38;;;11.62
72278;BMP280;61204;49.980;8.358;2022-12-29T03:57:30;99730.69;;;11.65
72278;BMP280;61204;49.980;8.358;2022-12-29T03:59:56;99745.72;;;11.64
72278;BMP280;61204;49.980;8.358;2022-12-29T04:02:21;99740.66;;;11.72
72278;BMP280;61204;49.980;8.358;2022-12-29T04:04:47;99725.53;;;11.71
72278;BMP280;61204;49.980;8.358;2022-12-29T04:07:12;99727.66;;;11.72
72278;BMP280;61204;49.980;8.358;2022-12-29T04:09:38;99734.19;;;11.79
72278;BMP280;61204;49.980;8.358;2022-12-29T04:12:03;99726.84;;;11.84
72278;BMP280;61204;49.980;8.358;2022-12-29T04:14:29;99732.25;;;11.82
72278;BMP280;61204;49.980;8.358;2022-12-29T04:16:54;99736.34;;;11.81
72278;BMP280;61204;49.980;8.358;2022-12-29T04:19:20;99737.13;;;11.83
72278;BMP280;61204;49.980;8.358;2022-12-29T04:21:46;99748.44;;;11.89
72278;BMP280;61204;49.980;8.358;2022-12-29T04:24:11;99726.69;;;11.93
72278;BMP280;61204;49.980;8.358;2022-12-29T04:26:37;99738.81;;;12.02
72278;BMP280;61204;49.980;8.358;2022-12-29T04:29:04;99737.25;;;11.99
72278;BMP280;61204;49.980;8.358;2022-12-29T04:31:29;99740.63;;;11.97
72278;BMP280;61204;49.980;8.358;2022-12-29T04:33:55;99752.25;;;11.96
72278;BMP280;61204;49.980;8.358;2022-12-29T04:36:22;99744.00;;;11.96
72278;BMP280;61204;49.980;8.358;2022-12-29T04:38:48;99728.22;;;12.10
72278;BMP280;61204;49.980;8.358;2022-12-29T04:41:14;99738.50;;;12.10
72278;BMP280;61204;49.980;8.358;2022-12-29T04:43:39;99733.91;;;12.00
72278;BMP280;61204;49.980;8.358;2022-12-29T04:46:05;99733.63;;;12.08
72278;BMP280;61204;49.980;8.358;2022-12-29T04:48:31;99739.91;;;11.97
72278;BMP280;61204;49.980;8.358;2022-12-29T04:50:57;99745.06;;;11.91
72278;BMP280;61204;49.980;8.358;2022-12-29T04:53:22;99745.88;;;11.80
72278;BMP280;61204;49.980;8.358;2022-12-29T04:55:48;99736.97;;;11.67
72278;BMP280;61204;49.980;8.358;2022-12-29T04:58:16;99731.28;;;11.63
72278;BMP280;61204;49.980;8.358;2022-12-29T05:00:42;99731.56;;;11.56
72278;BMP280;61204;49.980;8.358;2022-12-29T05:03:08;99740.28;;;11.52
72278;BMP280;61204;49.980;8.358;2022-12-29T05:05:33;99729.25;;;11.50
72278;BMP280;61204;49.980;8.358;2022-12-29T05:07:58;99736.88;;;11.52
72278;BMP280;61204;49.980;8.358;2022-12-29T05:10:24;99737.06;;;11.56
72278;BMP280;61204;49.980;8.358;2022-12-29T05:12:50;99742.72;;;11.46
72278;BMP280;61204;49.980;8.358;2022-12-29T05:15:16;99742.59;;;11.44
72278;BMP280;61204;49.980;8.358;2022-12-29T05:17:42;99739.09;;;11.30
72278;BMP280;61204;49.980;8.358;2022-12-29T05:20:08;99741.56;;;11.37
72278;BMP280;61204;49.980;8.358;2022-12-29T05:22:33;99746.84;;;11.33
72278;BMP280;61204;49.980;8.358;2022-12-29T05:24:59;99735.50;;;11.39
72278;BMP280;61204;49.980;8.358;2022-12-29T05:27:24;99734.59;;;11.48
72278;BMP280;61204;49.980;8.358;2022-12-29T05:29:50;99735.94;;;11.47
72278;BMP280;61204;49.980;8.358;2022-12-29T05:32:15;99725.38;;;11.55
72278;BMP280;61204;49.980;8.358;2022-12-29T05:34:41;99732.47;;;11.47
72278;BMP280;61204;49.980;8.358;2022-12-29T05:37:06;99729.72;;;11.47
72278;BMP280;61204;49.980;8.358;2022-12-29T05:39:32;99720.66;;;11.44
72278;BMP280;61204;49.980;8.358;2022-12-29T05:41:57;99727.09;;;11.49
72278;BMP280;61204;49.980;8.358;2022-12-29T05:44:23;99722.72;;;11.57
72278;BMP280;61204;49.980;8.358;2022-12-29T05:46:48;99723.34;;;11.56
72278;BMP280;61204;49.980;8.358;2022-12-29T05:49:14;99723.47;;;11.58
72278;BMP280;61204;49.980;8.358;2022-12-29T05:51:39;99732.81;;;11.66
72278;BMP280;61204;49.980;8.358;2022-12-29T05:54:05;99722.91;;;11.73
72278;BMP280;61204;49.980;8.358;2022-12-29T05:56:30;99731.34;;;11.77
72278;BMP280;61204;49.980;8.358;2022-12-29T05:58:56;99732.03;;;11.78
72278;BMP280;61204;49.980;8.358;2022-12-29T06:01:21;99729.59;;;11.84
72278;BMP280;61204;49.980;8.358;2022-12-29T06:03:47;99737.06;;;11.81
72278;BMP280;61204;49.980;8.358;2022-12-29T06:06:12;99729.91;;;11.90
72278;BMP280;61204;49.980;8.358;2022-12-29T06:08:37;99733.38;;;11.90
72278;BMP280;61204;49.980;8.358;2022-12-29T06:11:03;99730.63;;;11.90
72278;BMP280;61204;49.980;8.358;2022-12-29T06:13:29;99721.31;;;11.95
72278;BMP280;61204;49.980;8.358;2022-12-29T06:15:54;99750.22;;;12.10
72278;BMP280;61204;49.980;8.358;2022-12-29T06:18:20;99755.09;;;12.12
72278;BMP280;61204;49.980;8.358;2022-12-29T06:20:45;99725.88;;;12.18
72278;BMP280;61204;49.980;8.358;2022-12-29T06:23:11;99739.44;;;12.28
72278;BMP280;61204;49.980;8.358;2022-12-29T06:25:39;99742.69;;;12.24
72278;BMP280;61204;49.980;8.358;2022-12-29T06:28:05;99732.50;;;12.27
72278;BMP280;61204;49.980;8.358;2022-12-29T06:30:31;99727.31;;;12.19
72278;BMP280;61204;49.980;8.358;2022-12-29T06:32:58;99736.97;;;12.20
72278;BMP280;61204;49.980;8.358;2022-12-29T06:35:24;99730.47;;;12.27
72278;BMP280;61204;49.980;8.358;2022-12-29T06:37:50;99736.16;;;12.18
72278;BMP280;61204;49.980;8.358;2022-12-29T06:40:16;99723.66;;;12.15
72278;BMP280;61204;49.980;8.358;2022-12-29T06:42:41;99729.75;;;12.13
72278;BMP280;61204;49.980;8.358;2022-12-29T06:45:07;99721.63;;;12.15
72278;BMP280;61204;49.980;8.358;2022-12-29T06:47:33;99724.06;;;12.09
72278;BMP280;61204;49.980;8.358;2022-12-29T06:50:00;99719.56;;;12.02
72278;BMP280;61204;49.980;8.358;2022-12-29T06:52:26;99718.84;;;12.01
72278;BMP280;61204;49.980;8.358;2022-12-29T06:54:53;99719.06;;;11.92
72278;BMP280;61204;49.980;8.358;2022-12-29T06:57:19;99717.13;;;11.94
72278;BMP280;61204;49.980;8.358;2022-12-29T06:59:45;99718.88;;;11.88
72278;BMP280;61204;49.980;8.358;2022-12-29T07:02:11;99713.13;;;11.84
72278;BMP280;61204;49.980;8.358;2022-12-29T07:04:36;99716.38;;;11.80
72278;BMP280;61204;49.980;8.358;2022-12-29T07:07:02;99712.44;;;11.97
72278;BMP280;61204;49.980;8.358;2022-12-29T07:09:28;99716.31;;;12.06
72278;BMP280;61204;49.980;8.358;2022-12-29T07:11:53;99729.25;;;12.03
72278;BMP280;61204;49.980;8.358;2022-12-29T07:14:19;99706.16;;;12.08
72278;BMP280;61204;49.980;8.358;2022-12-29T07:16:44;99708.28;;;11.96
72278;BMP280;61204;49.980;8.358;2022-12-29T07:19:10;99703.59;;;11.98
72278;BMP280;61204;49.980;8.358;2022-12-29T07:21:35;99712.53;;;11.99
72278;BMP280;61204;49.980;8.358;2022-12-29T07:24:01;99710.63;;;12.01
72278;BMP280;61204;49.980;8.358;2022-12-29T07:26:26;99721.09;;;12.05
72278;BMP280;61204;49.980;8.358;2022-12-29T07:28:54;99722.63;;;12.08
72278;BMP280;61204;49.980;8.358;2022-12-29T07:31:21;99736.97;;;12.20
72278;BMP280;61204;49.980;8.358;2022-12-29T07:33:48;99729.25;;;12.31
72278;BMP280;61204;49.980;8.358;2022-12-29T07:36:14;99736.38;;;12.36
72278;BMP280;61204;49.980;8.358;2022-12-29T07:38:41;99750.53;;;12.44
72278;BMP280;61204;49.980;8.358;2022-12-29T07:41:08;99748.19;;;12.38
72278;BMP280;61204;49.980;8.358;2022-12-29T07:43:34;99752.03;;;12.33
72278;BMP280;61204;49.980;8.358;2022-12-29T07:45:59;99754.28;;;12.37
72278;BMP280;61204;49.980;8.358;2022-12-29T07:48:25;99762.13;;;12.42
72278;BMP280;61204;49.980;8.358;2022-12-29T07:50:51;99763.28;;;12.37
72278;BMP280;61204;49.980;8.358;2022-12-29T07:53:18;99766.59;;;12.36
72278;BMP280;61204;49.980;8.358;2022-12-29T07:55:44;99767.44;;;12.38
72278;BMP280;61204;49.980;8.358;2022-12-29T07:58:09;99766.72;;;12.38
72278;BMP280;61204;49.980;8.358;2022-12-29T08:00:35;99779.34;;;12.43
72278;BMP280;61204;49.980;8.358;2022-12-29T08:03:02;99767.22;;;12.34
72278;BMP280;61204;49.980;8.358;2022-12-29T08:05:29;99772.81;;;12.22
72278;BMP280;61204;49.980;8.358;2022-12-29T08:07:57;99781.66;;;12.21
72278;BMP280;61204;49.980;8.358;2022-12-29T08:10:23;99789.31;;;12.22
72278;BMP280;61204;49.980;8.358;2022-12-29T08:12:49;99788.69;;;12.24
72278;BMP280;61204;49.980;8.358;2022-12-29T08:15:14;99785.41;;;12.14
72278;BMP280;61204;49.980;8.358;2022-12-29T08:17:40;99787.16;;;12.21
72278;BMP280;61204;49.980;8.358;2022-12-29T08:20:05;99790.59;;;12.21
72278;BMP280;61204;49.980;8.358;2022-12-29T08:22:32;99790.22;;;12.27
72278;BMP280;61204;49.980;8.358;2022-12-29T08:24:58;99776.88;;;12.35
72278;BMP280;61204;49.980;8.358;2022-12-29T08:27:23;99784.97;;;12.45
72278;BMP280;61204;49.980;8.358;2022-12-29T08:29:50;99782.59;;;12.53
72278;BMP280;61204;49.980;8.358;2022-12-29T08:32:15;99788.47;;;12.47
72278;BMP280;61204;49.980;8.358;2022-12-29T08:34:41;99784.44;;;12.48
72278;BMP280;61204;49.980;8.358;2022-12-29T08:37:06;99797.88;;;12.56
72278;BMP280;61204;49.980;8.358;2022-12-29T08:39:32;99782.69;;;12.55
72278;BMP280;61204;49.980;8.358;2022-12-29T08:41:57;99787.69;;;12.58
72278;BMP280;61204;49.980;8.358;2022-12-29T08:44:23;99781.97;;;12.54
72278;BMP280;61204;49.980;8.358;2022-12-29T08:46:49;99775.44;;;12.48
72278;BMP280;61204;49.980;8.358;2022-12-29T08:49:15;99783.81;;;12.22
72278;BMP280;61204;49.980;8.358;2022-12-29T08:51:40;99790.72;;;12.10
72278;BMP280;61204;49.980;8.358;2022-12-29T08:54:06;99779.59;;;11.94
72278;BMP280;61204;49.980;8.358;2022-12-29T08:56:31;99791.56;;;11.87
72278;BMP280;61204;49.980;8.358;2022-12-29T08:58:57;99799.78;;;11.73
72278;BMP280;61204;49.980;8.358;2022-12-29T09:01:22;99800.41;;;11.60
72278;BMP280;61204;49.980;8.358;2022-12-29T09:03:48;99800.59;;;11.50
72278;BMP280;61204;49.980;8.358;2022-12-29T09:06:14;99796.63;;;11.28
72278;BMP280;61204;49.980;8.358;2022-12-29T09:08:42;99785.09;;;11.06
72278;BMP280;61204;49.980;8.358;2022-12-29T09:11:18;99796.81;;;10.95
72278;BMP280;61204;49.980;8.358;2022-12-29T09:13:47;99791.47;;;10.85
72278;BMP280;61204;49.980;8.358;2022-12-29T09:16:13;99795.16;;;10.78
72278;BMP280;61204;49.980;8.358;2022-12-29T09:18:41;99796.00;;;10.69
72278;BMP280;61204;49.980;8.358;2022-12-29T09:21:09;99788.97;;;10.66
72278;BMP280;61204;49.980;8.358;2022-12-29T09:23:35;99790.06;;;10.60
72278;BMP280;61204;49.980;8.358;2022-12-29T09:26:02;99790.78;;;10.61
72278;BMP280;61204;49.980;8.358;2022-12-29T09:28:28;99798.03;;;10.68
72278;BMP280;61204;49.980;8.358;2022-12-29T09:30:55;99805.34;;;10.64
72278;BMP280;61204;49.980;8.358;2022-12-29T09:33:23;99802.91;;;10.58
72278;BMP280;61204;49.980;8.358;2022-12-29T09:35:57;99798.63;;;10.55
72278;BMP280;61204;49.980;8.358;2022-12-29T09:38:24;99803.41;;;10.54
72278;BMP280;61204;49.980;8.358;2022-12-29T09:40:55;99799.00;;;10.49
72278;BMP280;61204;49.980;8.358;2022-12-29T09:43:42;99811.13;;;10.58
72278;BMP280;61204;49.980;8.358;2022-12-29T09:46:34;99795.41;;;10.58
72278;BMP280;61204;49.980;8.358;2022-12-29T09:51:41;99823.53;;;10.47
72278;BMP280;61204;49.980;8.358;2022-12-29T09:54:20;99819.25;;;10.44
72278;BMP280;61204;49.980;8.358;2022-12-29T09:56:54;99819.63;;;10.39
72278;BMP280;61204;49.980;8.358;2022-12-29T09:59:22;99808.75;;;10.29
72278;BMP280;61204;49.980;8.358;2022-12-29T10:04:54;99799.06;;;10.16
72278;BMP280;61204;49.980;8.358;2022-12-29T10:07:27;99791.56;;;10.17
72278;BMP280;61204;49.980;8.358;2022-12-29T10:10:25;99792.88;;;10.16
72278;BMP280;61204;49.980;8.358;2022-12-29T10:13:15;99798.47;;;10.18
72278;BMP280;61204;49.980;8.358;2022-12-29T10:22:14;99796.97;;;10.15
72278;BMP280;61204;49.980;8.358;2022-12-29T10:24:48;99786.22;;;10.19
72278;BMP280;61204;49.980;8.358;2022-12-29T10:27:19;99784.69;;;10.27
72278;BMP280;61204;49.980;8.358;2022-12-29T10:29:53;99804.22;;;10.33
72278;BMP280;61204;49.980;8.358;2022-12-29T10:32:36;99804.34;;;10.47
72278;BMP280;61204;49.980;8.358;2022-12-29T10:35:11;99806.16;;;10.54
72278;BMP280;61204;49.980;8.358;2022-12-29T10:38:01;99817.34;;;10.58
72278;BMP280;61204;49.980;8.358;2022-12-29T10:43:28;99832.94;;;10.91
72278;BMP280;61204;49.980;8.358;2022-12-29T10:45:59;99831.72;;;11.06
72278;BMP280;61204;49.980;8.358;2022-12-29T10:48:33;99851.53;;;11.16
72278;BMP280;61204;49.980;8.358;2022-12-29T10:51:04;99837.56;;;11.24
72278;BMP280;61204;49.980;8.358;2022-12-29T10:53:40;99837.16;;;11.29
72278;BMP280;61204;49.980;8.358;2022-12-29T10:59:23;99864.59;;;12.17
72278;BMP280;61204;49.980;8.358;2022-12-29T11:04:33;99873.13;;;12.49
72278;BMP280;61204;49.980;8.358;2022-12-29T11:07:01;99871.22;;;13.06
72278;BMP280;61204;49.980;8.358;2022-12-29T11:09:28;99877.19;;;13.60
72278;BMP280;61204;49.980;8.358;2022-12-29T11:11:57;99878.94;;;13.53
72278;BMP280;61204;49.980;8.358;2022-12-29T11:14:29;99891.00;;;13.46
72278;BMP280;61204;49.980;8.358;2022-12-29T11:17:00;99895.59;;;13.41
72278;BMP280;61204;49.980;8.358;2022-12-29T11:19:29;99893.09;;;13.18
72278;BMP280;61204;49.980;8.358;2022-12-29T11:22:12;99904.59;;;13.01
72278;BMP280;61204;49.980;8.358;2022-12-29T11:24:53;99911.25;;;12.96
72278;BMP280;61204;49.980;8.358;2022-12-29T11:27:29;99915.41;;;12.97
72278;BMP280;61204;49.980;8.358;2022-12-29T11:29:55;99903.69;;;12.96
72278;BMP280;61204;49.980;8.358;2022-12-29T11:32:21;99915.53;;;13.12
72278;BMP280;61204;49.980;8.358;2022-12-29T11:34:54;99899.22;;;13.17
72278;BMP280;61204;49.980;8.358;2022-12-29T11:37:36;99889.63;;;13.18
72278;BMP280;61204;49.980;8.358;2022-12-29T11:40:05;99898.91;;;13.10
72278;BMP280;61204;49.980;8.358;2022-12-29T11:42:47;99900.84;;;13.08
72278;BMP280;61204;49.980;8.358;2022-12-29T11:45:25;99903.59;;;13.08
72278;BMP280;61204;49.980;8.358;2022-12-29T11:47:58;99901.66;;;13.10
72278;BMP280;61204;49.980;8.358;2022-12-29T11:50:33;99906.97;;;12.93
72278;BMP280;61204;49.980;8.358;2022-12-29T11:53:17;99893.31;;;12.95
72278;BMP280;61204;49.980;8.358;2022-12-29T11:56:02;99893.63;;;12.87
72278;BMP280;61204;49.980;8.358;2022-12-29T11:58:38;99891.91;;;12.80
72278;BMP280;61204;49.980;8.358;2022-12-29T12:01:21;99901.19;;;12.87
72278;BMP280;61204;49.980;8.358;2022-12-29T12:07:00;99910.22;;;13.03
72278;BMP280;61204;49.980;8.358;2022-12-29T12:09:34;99902.50;;;12.99
72278;BMP280;61204;49.980;8.358;2022-12-29T12:12:18;99899.63;;;12.97
72278;BMP280;61204;49.980;8.358;2022-12-29T12:14:55;99898.91;;;12.97
72278;BMP280;61204;49.980;8.358;2022-12-29T12:22:50;99894.00;;;12.81
72278;BMP280;61204;49.980;8.358;2022-12-29T12:28:33;99887.00;;;12.65
72278;BMP280;61204;49.980;8.358;2022-12-29T12:31:15;99892.47;;;12.51
72278;BMP280;61204;49.980;8.358;2022-12-29T12:34:11;99870.91;;;12.45
72278;BMP280;61204;49.980;8.358;2022-12-29T12:39:54;99881.09;;;12.56
72278;BMP280;61204;49.980;8.358;2022-12-29T12:43:03;99888.19;;;12.62
72278;BMP280;61204;49.980;8.358;2022-12-29T12:45:50;99869.38;;;12.56
72278;BMP280;61204;49.980;8.358;2022-12-29T12:51:47;99878.81;;;14.42
72278;BMP280;61204;49.980;8.358;2022-12-29T12:54:36;99881.81;;;14.97
72278;BMP280;61204;49.980;8.358;2022-12-29T13:00:00;99875.50;;;14.14
72278;BMP280;61204;49.980;8.358;2022-12-29T13:05:21;99883.50;;;14.55
72278;BMP280;61204;49.980;8.358;2022-12-29T13:08:06;99884.56;;;14.48
72278;BMP280;61204;49.980;8.358;2022-12-29T13:11:24;99887.53;;;15.01
72278;BMP280;61204;49.980;8.358;2022-12-29T13:14:20;99883.78;;;15.28
72278;BMP280;61204;49.980;8.358;2022-12-29T13:19:42;99882.66;;;15.53
72278;BMP280;61204;49.980;8.358;2022-12-29T13:22:37;99878.94;;;15.29
72278;BMP280;61204;49.980;8.358;2022-12-29T13:29:23;99878.50;;;14.67
72278;BMP280;61204;49.980;8.358;2022-12-29T13:36:54;99884.38;;;13.51
72278;BMP280;61204;49.980;8.358;2022-12-29T13:39:26;99874.25;;;13.12
72278;BMP280;61204;49.980;8.358;2022-12-29T13:42:01;99891.38;;;13.11
72278;BMP280;61204;49.980;8.358;2022-12-29T13:44:40;99886.47;;;13.09
72278;BMP280;61204;49.980;8.358;2022-12-29T13:49:56;99876.72;;;12.93
72278;BMP280;61204;49.980;8.358;2022-12-29T13:52:27;99879.94;;;12.89
72278;BMP280;61204;49.980;8.358;2022-12-29T13:55:25;99880.84;;;13.07
72278;BMP280;61204;49.980;8.358;2022-12-29T13:58:12;99891.06;;;12.91
72278;BMP280;61204;49.980;8.358;2022-12-29T14:01:26;99897.28;;;12.92
72278;BMP280;61204;49.980;8.358;2022-12-29T14:04:12;99894.66;;;12.94
72278;BMP280;61204;49.980;8.358;2022-12-29T14:06:45;99893.13;;;12.91
72278;BMP280;61204;49.980;8.358;2022-12-29T14:15:14;99916.34;;;12.88
72278;BMP280;61204;49.980;8.358;2022-12-29T14:18:01;99915.72;;;12.75
72278;BMP280;61204;49.980;8.358;2022-12-29T14:20:37;99924.16;;;12.66
72278;BMP280;61204;49.980;8.358;2022-12-29T14:23:37;99918.56;;;12.64
72278;BMP280;61204;49.980;8.358;2022-12-29T14:30:59;99936.66;;;12.55
72278;BMP280;61204;49.980;8.358;2022-12-29T14:36:34;99931.25;;;12.43
72278;BMP280;61204;49.980;8.358;2022-12-29T14:39:03;99938.69;;;12.54
72278;BMP280;61204;49.980;8.358;2022-12-29T14:44:45;99946.38;;;12.56
72278;BMP280;61204;49.980;8.358;2022-12-29T14:47:35;99949.22;;;12.58
72278;BMP280;61204;49.980;8.358;2022-12-29T14:53:10;99920.88;;;12.55
72278;BMP280;61204;49.980;8.358;2022-12-29T14:56:18;99924.38;;;12.56
72278;BMP280;61204;49.980;8.358;2022-12-29T14:58:57;99924.72;;;12.37
72278;BMP280;61204;49.980;8.358;2022-12-29T15:01:38;99910.88;;;12.35
72278;BMP280;61204;49.980;8.358;2022-12-29T15:04:23;99936.59;;;12.27
72278;BMP280;61204;49.980;8.358;2022-12-29T15:06:56;99935.06;;;12.24
72278;BMP280;61204;49.980;8.358;2022-12-29T15:09:33;99937.16;;;12.12
72278;BMP280;61204;49.980;8.358;2022-12-29T15:12:15;99953.63;;;12.12
72278;BMP280;61204;49.980;8.358;2022-12-29T15:14:56;99956.19;;;12.08
72278;BMP280;61204;49.980;8.358;2022-12-29T15:17:28;99954.28;;;11.99
72278;BMP280;61204;49.980;8.358;2022-12-29T15:19:57;99962.41;;;11.97
72278;BMP280;61204;49.980;8.358;2022-12-29T15:22:56;99952.81;;;11.84
72278;BMP280;61204;49.980;8.358;2022-12-29T15:25:27;99951.28;;;11.69
72278;BMP280;61204;49.980;8.358;2022-12-29T15:27:54;99951.06;;;11.54
72278;BMP280;61204;49.980;8.358;2022-12-29T15:30:26;99955.72;;;11.63
72278;BMP280;61204;49.980;8.358;2022-12-29T15:32:51;99964.94;;;11.56
72278;BMP280;61204;49.980;8.358;2022-12-29T15:35:34;99962.78;;;11.54
72278;BMP280;61204;49.980;8.358;2022-12-29T15:41:02;99958.53;;;11.28
72278;BMP280;61204;49.980;8.358;2022-12-29T15:46:36;99976.50;;;11.07
72278;BMP280;61204;49.980;8.358;2022-12-29T15:49:04;99980.81;;;10.99
72278;BMP280;61204;49.980;8.358;2022-12-29T15:51:34;99981.28;;;10.95
72278;BMP280;61204;49.980;8.358;2022-12-29T15:54:03;99990.69;;;10.92
72278;BMP280;61204;49.980;8.358;2022-12-29T15:56:31;99991.63;;;10.85
72278;BMP280;61204;49.980;8.358;2022-12-29T15:58:58;100000.50;;;11.07
72278;BMP280;61204;49.980;8.358;2022-12-29T16:01:30;99992.72;;;10.92
72278;BMP280;61204;49.980;8.358;2022-12-29T16:04:04;99984.72;;;10.84
72278;BMP280;61204;49.980;8.358;2022-12-29T16:06:33;99985.81;;;10.90
72278;BMP280;61204;49.980;8.358;2022-12-29T16:09:05;99987.50;;;10.96
72278;BMP280;61204;49.980;8.358;2022-12-29T16:11:40;99990.84;;;10.94
72278;BMP280;61204;49.980;8.358;2022-12-29T16:14:19;99979.00;;;10.80
72278;BMP280;61204;49.980;8.358;2022-12-29T16:16:55;99985.44;;;10.73
72278;BMP280;61204;49.980;8.358;2022-12-29T16:19:32;99991.69;;;10.52
72278;BMP280;61204;49.980;8.358;2022-12-29T16:22:03;100000.13;;;10.44
72278;BMP280;61204;49.980;8.358;2022-12-29T16:24:37;100005.28;;;10.28
72278;BMP280;61204;49.980;8.358;2022-12-29T16:29:53;100019.06;;;10.19
72278;BMP280;61204;49.980;8.358;2022-12-29T16:32:25;100021.59;;;10.26
72278;BMP280;61204;49.980;8.358;2022-12-29T16:35:13;100025.47;;;10.12